sensor_id;sensor_type;location;lat;lon;timestamp;temperature;humidity
39675;DHT22;27790;50.840;4.386;2022-08-21T00:00:28;19.10;80.20
39675;DHT22;27790;50.840;4.386;2022-08-21T00:02:58;19.10;79.90
39675;DHT22;27790;50.840;4.386;2022-08-21T00:05:25;19.10;80.30
39675;DHT22;27790;50.840;4.386;2022-08-21T00:07:51;19.10;80.80
39675;DHT22;27790;50.840;4.386;2022-08-21T00:10:17;19.00;81.20
39675;DHT22;27790;50.840;4.386;2022-08-21T00:12:44;19.00;81.10
39675;DHT22;27790;50.840;4.386;2022-08-21T00:15:14;18.90;81.50
39675;DHT22;27790;50.840;4.386;2022-08-21T00:17:40;18.90;81.60
39675;DHT22;27790;50.840;4.386;2022-08-21T00:20:08;18.90;81.80
39675;DHT22;27790;50.840;4.386;2022-08-21T00:22:35;18.90;82.00
39675;DHT22;27790;50.840;4.386;2022-08-21T00:25:01;18.80;82.40
39675;DHT22;27790;50.840;4.386;2022-08-21T00:27:28;18.80;82.20
39675;DHT22;27790;50.840;4.386;2022-08-21T00:29:54;18.80;82.40
39675;DHT22;27790;50.840;4.386;2022-08-21T00:32:25;18.70;82.70
39675;DHT22;27790;50.840;4.386;2022-08-21T00:34:51;18.60;82.50
39675;DHT22;27790;50.840;4.386;2022-08-21T00:37:17;18.60;83.20
39675;DHT22;27790;50.840;4.386;2022-08-21T00:39:43;18.60;83.60
39675;DHT22;27790;50.840;4.386;2022-08-21T00:42:10;18.60;83.60
39675;DHT22;27790;50.840;4.386;2022-08-21T00:44:35;18.60;83.80
39675;DHT22;27790;50.840;4.386;2022-08-21T00:47:01;18.60;83.40
39675;DHT22;27790;50.840;4.386;2022-08-21T00:49:27;18.50;83.50
39675;DHT22;27790;50.840;4.386;2022-08-21T00:51:57;18.50;83.80
39675;DHT22;27790;50.840;4.386;2022-08-21T00:54:26;18.40;84.00
39675;DHT22;27790;50.840;4.386;2022-08-21T00:57:00;18.40;83.90
39675;DHT22;27790;50.840;4.386;2022-08-21T00:59:28;18.40;84.00
39675;DHT22;27790;50.840;4.386;2022-08-21T01:01:55;18.30;84.80
39675;DHT22;27790;50.840;4.386;2022-08-21T01:04:22;18.30;84.30
39675;DHT22;27790;50.840;4.386;2022-08-21T01:06:48;18.30;85.00
39675;DHT22;27790;50.840;4.386;2022-08-21T01:09:14;18.30;84.80
39675;DHT22;27790;50.840;4.386;2022-08-21T01:11:41;18.20;84.50
39675;DHT22;27790;50.840;4.386;2022-08-21T01:14:08;18.20;85.00
39675;DHT22;27790;50.840;4.386;2022-08-21T01:16:38;18.30;85.20
39675;DHT22;27790;50.840;4.386;2022-08-21T01:19:04;18.20;84.90
39675;DHT22;27790;50.840;4.386;2022-08-21T01:21:31;18.20;85.20
39675;DHT22;27790;50.840;4.386;2022-08-21T01:23:57;18.20;85.60
39675;DHT22;27790;50.840;4.386;2022-08-21T01:26:34;18.10;85.40
39675;DHT22;27790;50.840;4.386;2022-08-21T01:29:15;18.10;85.10
39675;DHT22;27790;50.840;4.386;2022-08-21T01:31:42;18.10;84.70
39675;DHT22;27790;50.840;4.386;2022-08-21T01:34:09;18.10;84.80
39675;DHT22;27790;50.840;4.386;2022-08-21T01:36:35;18.10;85.10
39675;DHT22;27790;50.840;4.386;2022-08-21T01:39:02;18.10;85.20
39675;DHT22;27790;50.840;4.386;2022-08-21T01:41:27;18.10;85.30
39675;DHT22;27790;50.840;4.386;2022-08-21T01:43:53;18.10;85.20
39675;DHT22;27790;50.840;4.386;2022-08-21T01:46:19;18.00;85.70
39675;DHT22;27790;50.840;4.386;2022-08-21T01:48:44;18.10;85.90
39675;DHT22;27790;50.840;4.386;2022-08-21T01:51:10;18.00;86.20
39675;DHT22;27790;50.840;4.386;2022-08-21T01:53:37;18.00;86.10
39675;DHT22;27790;50.840;4.386;2022-08-21T01:56:08;18.00;86.10
39675;DHT22;27790;50.840;4.386;2022-08-21T01:58:34;18.00;85.90
39675;DHT22;27790;50.840;4.386;2022-08-21T02:01:01;18.00;85.50
39675;DHT22;27790;50.840;4.386;2022-08-21T02:03:28;17.90;85.40
39675;DHT22;27790;50.840;4.386;2022-08-21T02:05:54;17.90;85.70
39675;DHT22;27790;50.840;4.386;2022-08-21T02:08:20;17.90;86.00
39675;DHT22;27790;50.840;4.386;2022-08-21T02:10:49;17.90;86.00
39675;DHT22;27790;50.840;4.386;2022-08-21T02:13:16;17.90;86.20
39675;DHT22;27790;50.840;4.386;2022-08-21T02:15:42;17.80;86.10
39675;DHT22;27790;50.840;4.386;2022-08-21T02:18:07;17.80;86.40
39675;DHT22;27790;50.840;4.386;2022-08-21T02:20:39;17.80;86.20
39675;DHT22;27790;50.840;4.386;2022-08-21T02:23:06;17.80;86.20
39675;DHT22;27790;50.840;4.386;2022-08-21T02:25:33;17.80;86.30
39675;DHT22;27790;50.840;4.386;2022-08-21T02:27:59;17.80;86.20
39675;DHT22;27790;50.840;4.386;2022-08-21T02:30:28;17.80;86.10
39675;DHT22;27790;50.840;4.386;2022-08-21T02:32:54;17.80;86.20
39675;DHT22;27790;50.840;4.386;2022-08-21T02:35:21;17.80;86.30
39675;DHT22;27790;50.840;4.386;2022-08-21T02:40:15;17.80;86.80
39675;DHT22;27790;50.840;4.386;2022-08-21T02:42:41;17.80;87.00
39675;DHT22;27790;50.840;4.386;2022-08-21T02:45:09;17.70;87.10
39675;DHT22;27790;50.840;4.386;2022-08-21T02:47:35;17.70;87.30
39675;DHT22;27790;50.840;4.386;2022-08-21T02:50:01;17.70;87.60
39675;DHT22;27790;50.840;4.386;2022-08-21T02:52:26;17.60;87.60
39675;DHT22;27790;50.840;4.386;2022-08-21T02:54:52;17.60;87.70
39675;DHT22;27790;50.840;4.386;2022-08-21T02:57:17;17.60;87.70
39675;DHT22;27790;50.840;4.386;2022-08-21T02:59:43;17.60;87.70
39675;DHT22;27790;50.840;4.386;2022-08-21T03:02:09;17.60;87.70
39675;DHT22;27790;50.840;4.386;2022-08-21T03:04:36;17.60;87.70
39675;DHT22;27790;50.840;4.386;2022-08-21T03:07:02;17.60;87.70
39675;DHT22;27790;50.840;4.386;2022-08-21T03:09:28;17.60;87.80
39675;DHT22;27790;50.840;4.386;2022-08-21T03:11:53;17.60;87.80
39675;DHT22;27790;50.840;4.386;2022-08-21T03:14:19;17.60;87.80
39675;DHT22;27790;50.840;4.386;2022-08-21T03:16:45;17.60;88.10
39675;DHT22;27790;50.840;4.386;2022-08-21T03:19:11;17.60;88.10
39675;DHT22;27790;50.840;4.386;2022-08-21T03:21:37;17.60;88.40
39675;DHT22;27790;50.840;4.386;2022-08-21T03:24:03;17.60;88.60
39675;DHT22;27790;50.840;4.386;2022-08-21T03:26:30;17.60;88.80
39675;DHT22;27790;50.840;4.386;2022-08-21T03:28:55;17.60;89.20
39675;DHT22;27790;50.840;4.386;2022-08-21T03:31:23;17.50;89.20
39675;DHT22;27790;50.840;4.386;2022-08-21T03:33:48;17.50;89.30
39675;DHT22;27790;50.840;4.386;2022-08-21T03:36:15;17.60;89.10
39675;DHT22;27790;50.840;4.386;2022-08-21T03:38:41;17.50;89.00
39675;DHT22;27790;50.840;4.386;2022-08-21T03:41:07;17.50;89.10
39675;DHT22;27790;50.840;4.386;2022-08-21T03:43:33;17.50;89.00
39675;DHT22;27790;50.840;4.386;2022-08-21T03:46:03;17.50;89.00
39675;DHT22;27790;50.840;4.386;2022-08-21T03:48:30;17.50;89.30
39675;DHT22;27790;50.840;4.386;2022-08-21T03:50:55;17.50;89.50
39675;DHT22;27790;50.840;4.386;2022-08-21T03:53:21;17.50;89.10
39675;DHT22;27790;50.840;4.386;2022-08-21T03:55:49;17.50;89.00
39675;DHT22;27790;50.840;4.386;2022-08-21T03:58:18;17.40;88.80
39675;DHT22;27790;50.840;4.386;2022-08-21T04:00:46;17.50;89.00
39675;DHT22;27790;50.840;4.386;2022-08-21T04:03:12;17.40;88.70
39675;DHT22;27790;50.840;4.386;2022-08-21T04:05:37;17.50;88.70
39675;DHT22;27790;50.840;4.386;2022-08-21T04:08:04;17.50;88.80
39675;DHT22;27790;50.840;4.386;2022-08-21T04:10:32;17.40;88.90
39675;DHT22;27790;50.840;4.386;2022-08-21T04:12:58;17.40;89.00
39675;DHT22;27790;50.840;4.386;2022-08-21T04:15:25;17.40;89.20
39675;DHT22;27790;50.840;4.386;2022-08-21T04:17:51;17.40;89.50
39675;DHT22;27790;50.840;4.386;2022-08-21T04:20:18;17.30;89.70
39675;DHT22;27790;50.840;4.386;2022-08-21T04:22:44;17.30;89.70
39675;DHT22;27790;50.840;4.386;2022-08-21T04:25:11;17.30;89.70
39675;DHT22;27790;50.840;4.386;2022-08-21T04:27:37;17.30;89.60
39675;DHT22;27790;50.840;4.386;2022-08-21T04:30:04;17.30;89.70
39675;DHT22;27790;50.840;4.386;2022-08-21T04:32:30;17.30;90.00
39675;DHT22;27790;50.840;4.386;2022-08-21T04:35:04;17.30;89.60
39675;DHT22;27790;50.840;4.386;2022-08-21T04:37:30;17.30;89.50
39675;DHT22;27790;50.840;4.386;2022-08-21T04:39:56;17.30;89.70
39675;DHT22;27790;50.840;4.386;2022-08-21T04:42:24;17.30;89.70
39675;DHT22;27790;50.840;4.386;2022-08-21T04:44:50;17.30;89.80
39675;DHT22;27790;50.840;4.386;2022-08-21T04:47:16;17.30;89.90
39675;DHT22;27790;50.840;4.386;2022-08-21T04:49:42;17.30;90.00
39675;DHT22;27790;50.840;4.386;2022-08-21T04:52:08;17.40;89.80
39675;DHT22;27790;50.840;4.386;2022-08-21T04:54:34;17.40;89.70
39675;DHT22;27790;50.840;4.386;2022-08-21T04:57:02;17.40;89.60
39675;DHT22;27790;50.840;4.386;2022-08-21T04:59:35;17.40;89.70
39675;DHT22;27790;50.840;4.386;2022-08-21T05:02:02;17.40;89.70
39675;DHT22;27790;50.840;4.386;2022-08-21T05:04:30;17.40;89.70
39675;DHT22;27790;50.840;4.386;2022-08-21T05:07:01;17.40;89.80
39675;DHT22;27790;50.840;4.386;2022-08-21T05:09:28;17.50;89.60
39675;DHT22;27790;50.840;4.386;2022-08-21T05:11:55;17.50;89.40
39675;DHT22;27790;50.840;4.386;2022-08-21T05:14:21;17.60;89.40
39675;DHT22;27790;50.840;4.386;2022-08-21T05:16:47;17.60;89.30
39675;DHT22;27790;50.840;4.386;2022-08-21T05:19:13;17.60;89.00
39675;DHT22;27790;50.840;4.386;2022-08-21T05:21:42;17.70;89.20
39675;DHT22;27790;50.840;4.386;2022-08-21T05:24:10;17.70;88.80
39675;DHT22;27790;50.840;4.386;2022-08-21T05:26:37;17.70;88.60
39675;DHT22;27790;50.840;4.386;2022-08-21T05:29:03;17.70;88.60
39675;DHT22;27790;50.840;4.386;2022-08-21T05:31:29;17.70;88.70
39675;DHT22;27790;50.840;4.386;2022-08-21T05:33:55;17.80;88.60
39675;DHT22;27790;50.840;4.386;2022-08-21T05:36:21;17.80;88.40
39675;DHT22;27790;50.840;4.386;2022-08-21T05:38:47;17.80;88.50
39675;DHT22;27790;50.840;4.386;2022-08-21T05:41:13;17.90;88.40
39675;DHT22;27790;50.840;4.386;2022-08-21T05:43:38;17.90;88.30
39675;DHT22;27790;50.840;4.386;2022-08-21T05:46:06;17.90;88.20
39675;DHT22;27790;50.840;4.386;2022-08-21T05:48:33;18.00;88.20
39675;DHT22;27790;50.840;4.386;2022-08-21T05:51:13;18.00;87.70
39675;DHT22;27790;50.840;4.386;2022-08-21T05:53:40;18.10;87.40
39675;DHT22;27790;50.840;4.386;2022-08-21T05:56:07;18.20;86.80
39675;DHT22;27790;50.840;4.386;2022-08-21T05:58:33;18.50;86.40
39675;DHT22;27790;50.840;4.386;2022-08-21T06:01:00;19.00;85.20
39675;DHT22;27790;50.840;4.386;2022-08-21T06:03:29;19.60;83.20
39675;DHT22;27790;50.840;4.386;2022-08-21T06:05:55;20.30;80.30
39675;DHT22;27790;50.840;4.386;2022-08-21T06:08:22;20.70;78.70
39675;DHT22;27790;50.840;4.386;2022-08-21T06:10:49;20.80;77.60
39675;DHT22;27790;50.840;4.386;2022-08-21T06:13:17;20.60;78.00
39675;DHT22;27790;50.840;4.386;2022-08-21T06:15:44;20.40;78.70
39675;DHT22;27790;50.840;4.386;2022-08-21T06:18:10;20.20;80.10
39675;DHT22;27790;50.840;4.386;2022-08-21T06:20:36;20.00;80.60
39675;DHT22;27790;50.840;4.386;2022-08-21T06:23:03;20.00;80.40
39675;DHT22;27790;50.840;4.386;2022-08-21T06:25:28;19.90;80.80
39675;DHT22;27790;50.840;4.386;2022-08-21T06:28:01;20.00;80.20
39675;DHT22;27790;50.840;4.386;2022-08-21T06:30:27;19.90;80.90
39675;DHT22;27790;50.840;4.386;2022-08-21T06:32:52;19.90;80.70
39675;DHT22;27790;50.840;4.386;2022-08-21T06:35:18;19.80;81.00
39675;DHT22;27790;50.840;4.386;2022-08-21T06:37:43;19.70;81.30
39675;DHT22;27790;50.840;4.386;2022-08-21T06:40:09;19.70;81.30
39675;DHT22;27790;50.840;4.386;2022-08-21T06:42:35;19.80;80.90
39675;DHT22;27790;50.840;4.386;2022-08-21T06:45:01;19.70;81.10
39675;DHT22;27790;50.840;4.386;2022-08-21T06:47:26;19.70;81.70
39675;DHT22;27790;50.840;4.386;2022-08-21T06:49:52;19.70;81.10
39675;DHT22;27790;50.840;4.386;2022-08-21T06:52:17;19.70;81.60
39675;DHT22;27790;50.840;4.386;2022-08-21T06:54:43;19.70;81.80
39675;DHT22;27790;50.840;4.386;2022-08-21T06:57:09;19.80;81.80
39675;DHT22;27790;50.840;4.386;2022-08-21T06:59:35;19.90;82.00
39675;DHT22;27790;50.840;4.386;2022-08-21T07:02:00;19.90;81.80
39675;DHT22;27790;50.840;4.386;2022-08-21T07:04:26;20.00;82.30
39675;DHT22;27790;50.840;4.386;2022-08-21T07:06:52;20.10;82.10
39675;DHT22;27790;50.840;4.386;2022-08-21T07:09:17;20.30;81.80
39675;DHT22;27790;50.840;4.386;2022-08-21T07:11:45;20.60;81.00
39675;DHT22;27790;50.840;4.386;2022-08-21T07:14:12;21.40;79.90
39675;DHT22;27790;50.840;4.386;2022-08-21T07:16:38;22.30;77.50
39675;DHT22;27790;50.840;4.386;2022-08-21T07:19:03;23.20;74.80
39675;DHT22;27790;50.840;4.386;2022-08-21T07:21:29;24.00;72.50
39675;DHT22;27790;50.840;4.386;2022-08-21T07:23:55;24.60;70.50
39675;DHT22;27790;50.840;4.386;2022-08-21T07:26:21;25.20;68.70
39675;DHT22;27790;50.840;4.386;2022-08-21T07:28:48;25.70;67.90
39675;DHT22;27790;50.840;4.386;2022-08-21T07:31:17;25.80;67.50
39675;DHT22;27790;50.840;4.386;2022-08-21T07:33:43;25.50;67.50
39675;DHT22;27790;50.840;4.386;2022-08-21T07:36:09;25.20;68.10
39675;DHT22;27790;50.840;4.386;2022-08-21T07:38:35;25.00;69.00
39675;DHT22;27790;50.840;4.386;2022-08-21T07:41:02;25.30;68.80
39675;DHT22;27790;50.840;4.386;2022-08-21T07:43:31;25.80;68.20
39675;DHT22;27790;50.840;4.386;2022-08-21T07:45:57;26.10;66.80
39675;DHT22;27790;50.840;4.386;2022-08-21T07:48:23;26.30;66.50
39675;DHT22;27790;50.840;4.386;2022-08-21T07:50:48;26.50;65.90
39675;DHT22;27790;50.840;4.386;2022-08-21T07:53:15;26.70;65.70
39675;DHT22;27790;50.840;4.386;2022-08-21T07:55:41;26.80;64.90
39675;DHT22;27790;50.840;4.386;2022-08-21T07:58:07;26.90;64.80
39675;DHT22;27790;50.840;4.386;2022-08-21T08:00:32;26.80;64.70
39675;DHT22;27790;50.840;4.386;2022-08-21T08:02:58;26.40;65.00
39675;DHT22;27790;50.840;4.386;2022-08-21T08:05:27;26.10;66.00
39675;DHT22;27790;50.840;4.386;2022-08-21T08:07:53;26.10;66.30
39675;DHT22;27790;50.840;4.386;2022-08-21T08:10:20;26.00;66.20
39675;DHT22;27790;50.840;4.386;2022-08-21T08:12:46;25.90;66.90
39675;DHT22;27790;50.840;4.386;2022-08-21T08:15:16;25.80;66.80
39675;DHT22;27790;50.840;4.386;2022-08-21T08:17:41;25.70;67.30
39675;DHT22;27790;50.840;4.386;2022-08-21T08:20:08;25.70;67.50
39675;DHT22;27790;50.840;4.386;2022-08-21T08:22:36;25.60;67.90
39675;DHT22;27790;50.840;4.386;2022-08-21T08:25:03;25.50;67.50
39675;DHT22;27790;50.840;4.386;2022-08-21T08:27:29;25.40;68.00
39675;DHT22;27790;50.840;4.386;2022-08-21T08:29:54;25.30;67.90
39675;DHT22;27790;50.840;4.386;2022-08-21T08:32:20;25.50;67.90
39675;DHT22;27790;50.840;4.386;2022-08-21T08:34:46;26.00;66.10
39675;DHT22;27790;50.840;4.386;2022-08-21T08:37:14;26.20;65.10
39675;DHT22;27790;50.840;4.386;2022-08-21T08:39:40;26.50;65.50
39675;DHT22;27790;50.840;4.386;2022-08-21T08:42:09;27.00;64.20
39675;DHT22;27790;50.840;4.386;2022-08-21T08:44:37;27.60;62.80
39675;DHT22;27790;50.840;4.386;2022-08-21T08:47:03;27.50;63.40
39675;DHT22;27790;50.840;4.386;2022-08-21T08:51:57;28.00;61.60
39675;DHT22;27790;50.840;4.386;2022-08-21T08:54:38;28.00;61.40
39675;DHT22;27790;50.840;4.386;2022-08-21T08:57:09;28.10;61.30
39675;DHT22;27790;50.840;4.386;2022-08-21T08:59:44;28.30;61.20
39675;DHT22;27790;50.840;4.386;2022-08-21T09:02:13;28.20;60.50
39675;DHT22;27790;50.840;4.386;2022-08-21T09:04:40;28.20;61.30
39675;DHT22;27790;50.840;4.386;2022-08-21T09:10:04;28.40;60.40
39675;DHT22;27790;50.840;4.386;2022-08-21T09:20:29;29.30;57.50
39675;DHT22;27790;50.840;4.386;2022-08-21T09:26:07;28.60;59.20
39675;DHT22;27790;50.840;4.386;2022-08-21T09:28:34;28.30;59.90
39675;DHT22;27790;50.840;4.386;2022-08-21T09:31:08;28.10;59.70
39675;DHT22;27790;50.840;4.386;2022-08-21T09:33:37;27.70;59.70
39675;DHT22;27790;50.840;4.386;2022-08-21T09:36:03;27.50;59.60
39675;DHT22;27790;50.840;4.386;2022-08-21T09:38:32;27.30;60.30
39675;DHT22;27790;50.840;4.386;2022-08-21T09:41:02;27.00;61.30
39675;DHT22;27790;50.840;4.386;2022-08-21T09:43:29;26.90;62.50
39675;DHT22;27790;50.840;4.386;2022-08-21T09:48:41;26.60;61.00
39675;DHT22;27790;50.840;4.386;2022-08-21T09:51:13;26.40;62.30
39675;DHT22;27790;50.840;4.386;2022-08-21T09:53:51;26.10;62.20
39675;DHT22;27790;50.840;4.386;2022-08-21T09:56:37;26.00;62.10
39675;DHT22;27790;50.840;4.386;2022-08-21T09:59:29;26.00;62.30
39675;DHT22;27790;50.840;4.386;2022-08-21T10:02:01;25.70;62.70
39675;DHT22;27790;50.840;4.386;2022-08-21T10:04:34;25.60;63.80
39675;DHT22;27790;50.840;4.386;2022-08-21T10:07:08;25.50;64.00
39675;DHT22;27790;50.840;4.386;2022-08-21T10:09:34;25.20;64.60
39675;DHT22;27790;50.840;4.386;2022-08-21T10:14:56;24.80;65.80
39675;DHT22;27790;50.840;4.386;2022-08-21T10:17:27;24.70;66.80
39675;DHT22;27790;50.840;4.386;2022-08-21T10:20:08;24.80;66.40
39675;DHT22;27790;50.840;4.386;2022-08-21T10:25:19;25.00;65.10
39675;DHT22;27790;50.840;4.386;2022-08-21T10:30:46;25.10;65.10
39675;DHT22;27790;50.840;4.386;2022-08-21T10:33:21;24.90;65.60
39675;DHT22;27790;50.840;4.386;2022-08-21T10:48:58;25.50;64.90
39675;DHT22;27790;50.840;4.386;2022-08-21T10:51:50;25.70;64.00
39675;DHT22;27790;50.840;4.386;2022-08-21T10:57:09;25.60;64.70
39675;DHT22;27790;50.840;4.386;2022-08-21T10:59:44;25.60;64.50
39675;DHT22;27790;50.840;4.386;2022-08-21T11:04:51;25.60;63.70
39675;DHT22;27790;50.840;4.386;2022-08-21T11:07:30;25.70;63.90
39675;DHT22;27790;50.840;4.386;2022-08-21T11:10:00;25.80;63.40
39675;DHT22;27790;50.840;4.386;2022-08-21T11:12:42;25.90;62.50
39675;DHT22;27790;50.840;4.386;2022-08-21T11:17:51;25.40;63.10
39675;DHT22;27790;50.840;4.386;2022-08-21T11:20:30;25.30;63.10
39675;DHT22;27790;50.840;4.386;2022-08-21T11:23:07;25.20;63.70
39675;DHT22;27790;50.840;4.386;2022-08-21T11:25:41;25.10;64.90
39675;DHT22;27790;50.840;4.386;2022-08-21T11:33:39;24.90;64.30
39675;DHT22;27790;50.840;4.386;2022-08-21T11:36:22;24.70;64.70
39675;DHT22;27790;50.840;4.386;2022-08-21T11:41:34;24.80;64.90
39675;DHT22;27790;50.840;4.386;2022-08-21T11:44:07;24.80;66.00
39675;DHT22;27790;50.840;4.386;2022-08-21T11:54:38;25.00;65.30
39675;DHT22;27790;50.840;4.386;2022-08-21T11:57:23;25.10;64.40
39675;DHT22;27790;50.840;4.386;2022-08-21T11:59:55;25.20;64.30
39675;DHT22;27790;50.840;4.386;2022-08-21T12:02:30;25.20;63.90
39675;DHT22;27790;50.840;4.386;2022-08-21T12:05:00;25.30;63.90
39675;DHT22;27790;50.840;4.386;2022-08-21T12:07:39;25.40;62.40
39675;DHT22;27790;50.840;4.386;2022-08-21T12:10:17;25.50;62.60
39675;DHT22;27790;50.840;4.386;2022-08-21T12:12:46;25.60;62.50
39675;DHT22;27790;50.840;4.386;2022-08-21T12:15:24;25.70;62.80
39675;DHT22;27790;50.840;4.386;2022-08-21T12:25:46;25.80;60.90
39675;DHT22;27790;50.840;4.386;2022-08-21T12:28:22;25.90;61.60
39675;DHT22;27790;50.840;4.386;2022-08-21T12:30:49;25.90;61.60
39675;DHT22;27790;50.840;4.386;2022-08-21T12:33:32;26.00;61.80
39675;DHT22;27790;50.840;4.386;2022-08-21T12:36:11;25.90;62.10
39675;DHT22;27790;50.840;4.386;2022-08-21T12:38:50;25.70;62.60
39675;DHT22;27790;50.840;4.386;2022-08-21T12:41:20;25.60;62.30
39675;DHT22;27790;50.840;4.386;2022-08-21T12:43:56;25.70;62.70
39675;DHT22;27790;50.840;4.386;2022-08-21T12:46:30;25.80;61.90
39675;DHT22;27790;50.840;4.386;2022-08-21T12:49:02;25.80;61.90
39675;DHT22;27790;50.840;4.386;2022-08-21T12:51:57;25.90;61.80
39675;DHT22;27790;50.840;4.386;2022-08-21T12:54:32;25.80;61.40
39675;DHT22;27790;50.840;4.386;2022-08-21T12:57:04;25.80;61.60
39675;DHT22;27790;50.840;4.386;2022-08-21T12:59:32;25.70;61.50
39675;DHT22;27790;50.840;4.386;2022-08-21T13:02:00;25.70;63.30
39675;DHT22;27790;50.840;4.386;2022-08-21T13:04:37;25.80;61.90
39675;DHT22;27790;50.840;4.386;2022-08-21T13:07:13;25.90;61.50
39675;DHT22;27790;50.840;4.386;2022-08-21T13:09:55;26.00;60.20
39675;DHT22;27790;50.840;4.386;2022-08-21T13:12:22;25.90;59.20
39675;DHT22;27790;50.840;4.386;2022-08-21T13:14:50;25.90;59.20
39675;DHT22;27790;50.840;4.386;2022-08-21T13:17:21;26.00;59.60
39675;DHT22;27790;50.840;4.386;2022-08-21T13:19:57;26.10;59.10
39675;DHT22;27790;50.840;4.386;2022-08-21T13:22:25;26.20;58.80
39675;DHT22;27790;50.840;4.386;2022-08-21T13:24:51;26.30;58.90
39675;DHT22;27790;50.840;4.386;2022-08-21T13:27:22;26.40;60.60
39675;DHT22;27790;50.840;4.386;2022-08-21T13:29:59;26.30;59.10
39675;DHT22;27790;50.840;4.386;2022-08-21T13:32:26;26.20;59.20
39675;DHT22;27790;50.840;4.386;2022-08-21T13:34:53;26.10;59.70
39675;DHT22;27790;50.840;4.386;2022-08-21T13:37:27;26.20;60.00
39675;DHT22;27790;50.840;4.386;2022-08-21T13:39:54;26.30;60.20
39675;DHT22;27790;50.840;4.386;2022-08-21T13:42:20;26.30;59.80
39675;DHT22;27790;50.840;4.386;2022-08-21T13:44:47;26.30;61.70
39675;DHT22;27790;50.840;4.386;2022-08-21T13:47:15;26.20;61.10
39675;DHT22;27790;50.840;4.386;2022-08-21T13:49:47;26.10;59.80
39675;DHT22;27790;50.840;4.386;2022-08-21T13:52:20;26.10;59.80
39675;DHT22;27790;50.840;4.386;2022-08-21T13:54:55;26.00;59.40
39675;DHT22;27790;50.840;4.386;2022-08-21T13:57:33;26.00;59.40
39675;DHT22;27790;50.840;4.386;2022-08-21T14:00:11;26.00;59.60
39675;DHT22;27790;50.840;4.386;2022-08-21T14:02:42;25.90;61.70
39675;DHT22;27790;50.840;4.386;2022-08-21T14:05:36;25.90;61.80
39675;DHT22;27790;50.840;4.386;2022-08-21T14:08:08;25.90;60.80
39675;DHT22;27790;50.840;4.386;2022-08-21T14:10:45;25.80;60.50
39675;DHT22;27790;50.840;4.386;2022-08-21T14:15:59;25.70;60.20
39675;DHT22;27790;50.840;4.386;2022-08-21T14:18:25;25.70;60.70
39675;DHT22;27790;50.840;4.386;2022-08-21T14:20:57;25.80;61.10
39675;DHT22;27790;50.840;4.386;2022-08-21T14:23:28;25.80;61.10
39675;DHT22;27790;50.840;4.386;2022-08-21T14:25:59;25.60;60.50
39675;DHT22;27790;50.840;4.386;2022-08-21T14:28:34;25.50;60.70
39675;DHT22;27790;50.840;4.386;2022-08-21T14:31:13;25.50;61.70
39675;DHT22;27790;50.840;4.386;2022-08-21T14:33:39;25.40;60.80
39675;DHT22;27790;50.840;4.386;2022-08-21T14:36:04;25.40;61.20
39675;DHT22;27790;50.840;4.386;2022-08-21T14:38:30;25.40;61.60
39675;DHT22;27790;50.840;4.386;2022-08-21T14:41:18;25.50;61.10
39675;DHT22;27790;50.840;4.386;2022-08-21T14:43:45;25.50;63.60
39675;DHT22;27790;50.840;4.386;2022-08-21T14:46:20;25.60;61.90
39675;DHT22;27790;50.840;4.386;2022-08-21T14:48:47;25.50;60.80
39675;DHT22;27790;50.840;4.386;2022-08-21T14:51:13;25.40;61.30
39675;DHT22;27790;50.840;4.386;2022-08-21T14:53:39;25.50;61.20
39675;DHT22;27790;50.840;4.386;2022-08-21T14:56:05;25.60;61.90
39675;DHT22;27790;50.840;4.386;2022-08-21T14:58:42;25.80;62.60
39675;DHT22;27790;50.840;4.386;2022-08-21T15:01:11;25.90;62.90
39675;DHT22;27790;50.840;4.386;2022-08-21T15:03:37;26.00;61.70
39675;DHT22;27790;50.840;4.386;2022-08-21T15:06:05;26.10;62.00
39675;DHT22;27790;50.840;4.386;2022-08-21T15:08:31;26.10;60.40
39675;DHT22;27790;50.840;4.386;2022-08-21T15:10:57;26.10;61.10
39675;DHT22;27790;50.840;4.386;2022-08-21T15:13:24;26.20;60.20
39675;DHT22;27790;50.840;4.386;2022-08-21T15:15:50;26.20;60.40
39675;DHT22;27790;50.840;4.386;2022-08-21T15:18:19;26.10;60.90
39675;DHT22;27790;50.840;4.386;2022-08-21T15:20:44;26.10;60.50
39675;DHT22;27790;50.840;4.386;2022-08-21T15:23:10;26.10;61.20
39675;DHT22;27790;50.840;4.386;2022-08-21T15:25:36;26.10;59.70
39675;DHT22;27790;50.840;4.386;2022-08-21T15:28:05;26.10;60.00
39675;DHT22;27790;50.840;4.386;2022-08-21T15:30:31;26.00;59.60
39675;DHT22;27790;50.840;4.386;2022-08-21T15:32:57;26.00;60.70
39675;DHT22;27790;50.840;4.386;2022-08-21T15:35:22;25.90;60.30
39675;DHT22;27790;50.840;4.386;2022-08-21T15:37:48;25.90;61.40
39675;DHT22;27790;50.840;4.386;2022-08-21T15:40:15;25.90;61.40
39675;DHT22;27790;50.840;4.386;2022-08-21T15:42:42;25.90;61.70
39675;DHT22;27790;50.840;4.386;2022-08-21T15:45:09;25.90;60.80
39675;DHT22;27790;50.840;4.386;2022-08-21T15:47:37;25.90;60.80
39675;DHT22;27790;50.840;4.386;2022-08-21T15:50:05;25.90;61.20
39675;DHT22;27790;50.840;4.386;2022-08-21T15:52:32;25.90;60.80
39675;DHT22;27790;50.840;4.386;2022-08-21T15:54:58;26.00;60.70
39675;DHT22;27790;50.840;4.386;2022-08-21T15:57:25;25.90;60.30
39675;DHT22;27790;50.840;4.386;2022-08-21T16:00:14;25.90;59.00
39675;DHT22;27790;50.840;4.386;2022-08-21T16:02:41;25.80;61.20
39675;DHT22;27790;50.840;4.386;2022-08-21T16:05:08;25.70;60.60
39675;DHT22;27790;50.840;4.386;2022-08-21T16:07:36;25.60;60.50
39675;DHT22;27790;50.840;4.386;2022-08-21T16:10:02;25.60;59.60
39675;DHT22;27790;50.840;4.386;2022-08-21T16:12:31;25.50;60.50
39675;DHT22;27790;50.840;4.386;2022-08-21T16:14:58;25.50;61.20
39675;DHT22;27790;50.840;4.386;2022-08-21T16:17:28;25.50;60.90
39675;DHT22;27790;50.840;4.386;2022-08-21T16:19:55;25.40;61.40
39675;DHT22;27790;50.840;4.386;2022-08-21T16:22:21;25.40;61.60
39675;DHT22;27790;50.840;4.386;2022-08-21T16:24:46;25.30;61.10
39675;DHT22;27790;50.840;4.386;2022-08-21T16:27:12;25.30;61.80
39675;DHT22;27790;50.840;4.386;2022-08-21T16:29:39;25.10;61.00
39675;DHT22;27790;50.840;4.386;2022-08-21T16:32:05;25.00;60.40
39675;DHT22;27790;50.840;4.386;2022-08-21T16:34:31;25.00;62.10
39675;DHT22;27790;50.840;4.386;2022-08-21T16:36:58;25.00;62.40
39675;DHT22;27790;50.840;4.386;2022-08-21T16:39:23;25.00;62.30
39675;DHT22;27790;50.840;4.386;2022-08-21T16:41:49;25.00;62.40
39675;DHT22;27790;50.840;4.386;2022-08-21T16:44:17;24.90;62.50
39675;DHT22;27790;50.840;4.386;2022-08-21T16:46:43;24.90;62.80
39675;DHT22;27790;50.840;4.386;2022-08-21T16:49:09;24.90;62.80
39675;DHT22;27790;50.840;4.386;2022-08-21T16:51:37;25.00;61.70
39675;DHT22;27790;50.840;4.386;2022-08-21T16:54:03;25.00;62.70
39675;DHT22;27790;50.840;4.386;2022-08-21T16:56:29;25.00;62.90